Nashua Municipal Airport

Airport
ICAO code: 
KASH
Summary
ICAO Region: 
NAM
Territory: 
Location: 
Nashua, New Hampshire,
Coordinates: 
Aerial View: 
42° 46' 47.986" N, 71° 30' 58.214" W
Airport WX: 
Cumulonimbus
Metar
Observation
KASH 040556Z AUTO 30003KT 10SM BKN120 M02/M09 A3003 RMK AO2 SLP174 T10221089 10000 21044 51014
Station
Nashua, Boire Field Airport
Date/Time
2021-12-04 05:56:00
Wind direction
300°
Wind speed
03 kts
Lowest cloud amount
broken clouds
Temperature
-2.2°C
Dew point
-8.9°C
Humidity
60%
Weather condition
n/a

Description

Nashua Municipal Airport, also known as Boire Field, is a public use airport located 5 km northwest of the central business district of Nashua, a city in Hillsborough County, New Hampshire.

Climatology

Humid continental climate (Köppen climate classification Dfa) - characterized by four seasons: cold, windy, snowy winters, mild springs, hot, humid summers, and crisp and relatively short autumns. Precipitation reaches its lowest in January and February and peaks in summer and latter half of spring.

Runways

Designator Length Width Surface Rops
14/32 1677 30 ASP Yes/Yes
Airport map: 
Aerial View: 

SKYbrary Partners:

Safety knowledge contributed by: